Login to view Products
 
Saturday, July 24, 2021 (22:54 UTC) 22
Abu Dhabi International Airport
Last Updated: 24-Jul-2021 (22:53Z)
Wind Dir/Speed: ESE at 07 kt
Temperature: 36.0°C
Rel. Humidity: 53 %
Pressure: 996.2 hPa
Visibility: 8000 m
ACTUALS:
  • METAR OMAA 242200Z 12009KT 8000 NSC 36/26 Q0996 NOSIG
  • TAF OMAA 241700Z 2418/2600 02009KT 8000 NSC BECMG 2419/2421 14008KT PROB30 2503/2506 4000 DU BECMG 2504/2506 24012KT BECMG 2509/2511 34012KT BECMG 2517/2519 08005KT=

2